sensor_id;sensor_type;location;lat;lon;timestamp;P1;durP1;ratioP1;P2;durP2;ratioP2
32455;SDS011;18912;43.270;27.942;2023-06-22T00:00:58;19.05;;;8.75;;
32455;SDS011;18912;43.270;27.942;2023-06-22T00:03:25;15.48;;;8.35;;
32455;SDS011;18912;43.270;27.942;2023-06-22T00:05:52;18.55;;;8.73;;
32455;SDS011;18912;43.270;27.942;2023-06-22T00:08:18;16.17;;;8.85;;
32455;SDS011;18912;43.270;27.942;2023-06-22T00:10:44;16.23;;;8.00;;
32455;SDS011;18912;43.270;27.942;2023-06-22T00:13:11;14.45;;;8.90;;
32455;SDS011;18912;43.270;27.942;2023-06-22T00:15:38;14.65;;;9.02;;
32455;SDS011;18912;43.270;27.942;2023-06-22T00:18:08;14.13;;;8.43;;
32455;SDS011;18912;43.270;27.942;2023-06-22T00:20:35;13.13;;;8.57;;
32455;SDS011;18912;43.270;27.942;2023-06-22T00:23:05;18.40;;;9.07;;
32455;SDS011;18912;43.270;27.942;2023-06-22T00:25:35;16.00;;;8.85;;
32455;SDS011;18912;43.270;27.942;2023-06-22T00:28:02;16.83;;;8.57;;
32455;SDS011;18912;43.270;27.942;2023-06-22T00:30:29;16.52;;;9.38;;
32455;SDS011;18912;43.270;27.942;2023-06-22T00:35:20;11.60;;;8.07;;
32455;SDS011;18912;43.270;27.942;2023-06-22T00:37:46;17.30;;;9.40;;
32455;SDS011;18912;43.270;27.942;2023-06-22T00:40:11;16.77;;;8.47;;
32455;SDS011;18912;43.270;27.942;2023-06-22T00:42:38;14.20;;;8.73;;
32455;SDS011;18912;43.270;27.942;2023-06-22T00:45:04;15.70;;;8.73;;
32455;SDS011;18912;43.270;27.942;2023-06-22T00:47:31;18.02;;;9.00;;
32455;SDS011;18912;43.270;27.942;2023-06-22T00:49:59;17.27;;;9.40;;
32455;SDS011;18912;43.270;27.942;2023-06-22T00:52:25;16.05;;;8.65;;
32455;SDS011;18912;43.270;27.942;2023-06-22T00:54:53;17.98;;;8.45;;
32455;SDS011;18912;43.270;27.942;2023-06-22T00:57:20;11.82;;;8.15;;
32455;SDS011;18912;43.270;27.942;2023-06-22T00:59:47;18.02;;;8.48;;
32455;SDS011;18912;43.270;27.942;2023-06-22T01:02:13;18.38;;;8.73;;
32455;SDS011;18912;43.270;27.942;2023-06-22T01:04:39;20.15;;;8.05;;
32455;SDS011;18912;43.270;27.942;2023-06-22T01:07:16;13.75;;;8.32;;
32455;SDS011;18912;43.270;27.942;2023-06-22T01:09:59;19.10;;;8.40;;
32455;SDS011;18912;43.270;27.942;2023-06-22T01:12:33;16.80;;;8.18;;
32455;SDS011;18912;43.270;27.942;2023-06-22T01:15:18;19.70;;;8.57;;
32455;SDS011;18912;43.270;27.942;2023-06-22T01:17:49;18.23;;;8.27;;
32455;SDS011;18912;43.270;27.942;2023-06-22T01:20:18;16.35;;;7.95;;
32455;SDS011;18912;43.270;27.942;2023-06-22T01:23:05;17.10;;;8.27;;
32455;SDS011;18912;43.270;27.942;2023-06-22T01:25:46;15.93;;;8.20;;
32455;SDS011;18912;43.270;27.942;2023-06-22T01:31:08;19.67;;;8.52;;
32455;SDS011;18912;43.270;27.942;2023-06-22T01:33:37;15.75;;;9.10;;
32455;SDS011;18912;43.270;27.942;2023-06-22T01:36:05;16.95;;;8.65;;
32455;SDS011;18912;43.270;27.942;2023-06-22T01:38:32;15.25;;;8.70;;
32455;SDS011;18912;43.270;27.942;2023-06-22T01:40:58;13.82;;;7.70;;
32455;SDS011;18912;43.270;27.942;2023-06-22T01:43:26;17.23;;;8.40;;
32455;SDS011;18912;43.270;27.942;2023-06-22T01:45:53;12.82;;;9.18;;
32455;SDS011;18912;43.270;27.942;2023-06-22T01:48:20;20.48;;;9.65;;
32455;SDS011;18912;43.270;27.942;2023-06-22T01:50:47;14.15;;;10.43;;
32455;SDS011;18912;43.270;27.942;2023-06-22T01:53:12;16.67;;;9.53;;
32455;SDS011;18912;43.270;27.942;2023-06-22T01:55:38;15.37;;;9.37;;
32455;SDS011;18912;43.270;27.942;2023-06-22T01:58:03;21.37;;;9.60;;
32455;SDS011;18912;43.270;27.942;2023-06-22T02:00:30;13.43;;;9.70;;
32455;SDS011;18912;43.270;27.942;2023-06-22T02:03:21;15.18;;;9.43;;
32455;SDS011;18912;43.270;27.942;2023-06-22T02:06:35;15.57;;;9.50;;
32455;SDS011;18912;43.270;27.942;2023-06-22T02:08:47;14.95;;;9.73;;
32455;SDS011;18912;43.270;27.942;2023-06-22T02:11:17;15.65;;;10.20;;
32455;SDS011;18912;43.270;27.942;2023-06-22T02:13:45;18.10;;;9.32;;
32455;SDS011;18912;43.270;27.942;2023-06-22T02:16:12;20.80;;;10.60;;
32455;SDS011;18912;43.270;27.942;2023-06-22T02:18:39;18.30;;;10.25;;
32455;SDS011;18912;43.270;27.942;2023-06-22T02:21:19;19.80;;;10.07;;
32455;SDS011;18912;43.270;27.942;2023-06-22T02:23:46;18.58;;;10.45;;
32455;SDS011;18912;43.270;27.942;2023-06-22T02:26:11;17.13;;;9.90;;
32455;SDS011;18912;43.270;27.942;2023-06-22T02:28:37;13.73;;;9.60;;
32455;SDS011;18912;43.270;27.942;2023-06-22T02:31:03;17.50;;;9.63;;
32455;SDS011;18912;43.270;27.942;2023-06-22T02:33:28;18.90;;;9.70;;
32455;SDS011;18912;43.270;27.942;2023-06-22T02:35:54;17.60;;;9.50;;
32455;SDS011;18912;43.270;27.942;2023-06-22T02:38:19;17.93;;;10.27;;
32455;SDS011;18912;43.270;27.942;2023-06-22T02:40:45;14.67;;;10.40;;
32455;SDS011;18912;43.270;27.942;2023-06-22T02:43:11;19.92;;;11.05;;
32455;SDS011;18912;43.270;27.942;2023-06-22T02:48:03;19.33;;;10.38;;
32455;SDS011;18912;43.270;27.942;2023-06-22T02:50:29;26.67;;;10.98;;
32455;SDS011;18912;43.270;27.942;2023-06-22T02:52:55;35.47;;;11.20;;
32455;SDS011;18912;43.270;27.942;2023-06-22T02:55:20;29.47;;;11.27;;
32455;SDS011;18912;43.270;27.942;2023-06-22T02:57:46;25.53;;;10.77;;
32455;SDS011;18912;43.270;27.942;2023-06-22T03:00:13;41.83;;;11.45;;
32455;SDS011;18912;43.270;27.942;2023-06-22T03:02:43;17.02;;;10.20;;
32455;SDS011;18912;43.270;27.942;2023-06-22T03:05:10;19.70;;;10.55;;
32455;SDS011;18912;43.270;27.942;2023-06-22T03:07:38;29.85;;;11.00;;
32455;SDS011;18912;43.270;27.942;2023-06-22T03:10:08;20.25;;;11.70;;
32455;SDS011;18912;43.270;27.942;2023-06-22T03:12:34;19.83;;;11.57;;
32455;SDS011;18912;43.270;27.942;2023-06-22T03:15:00;19.80;;;10.93;;
32455;SDS011;18912;43.270;27.942;2023-06-22T03:17:26;18.47;;;10.77;;
32455;SDS011;18912;43.270;27.942;2023-06-22T03:19:51;29.07;;;12.10;;
32455;SDS011;18912;43.270;27.942;2023-06-22T03:22:16;26.80;;;10.90;;
32455;SDS011;18912;43.270;27.942;2023-06-22T03:24:42;21.20;;;11.73;;
32455;SDS011;18912;43.270;27.942;2023-06-22T03:27:07;22.23;;;11.10;;
32455;SDS011;18912;43.270;27.942;2023-06-22T03:29:33;23.83;;;12.17;;
32455;SDS011;18912;43.270;27.942;2023-06-22T03:31:59;21.17;;;12.30;;
32455;SDS011;18912;43.270;27.942;2023-06-22T03:34:24;25.47;;;11.97;;
32455;SDS011;18912;43.270;27.942;2023-06-22T03:36:50;20.57;;;11.90;;
32455;SDS011;18912;43.270;27.942;2023-06-22T03:39:15;19.57;;;11.60;;
32455;SDS011;18912;43.270;27.942;2023-06-22T03:41:41;26.07;;;12.93;;
32455;SDS011;18912;43.270;27.942;2023-06-22T03:44:06;24.73;;;12.53;;
32455;SDS011;18912;43.270;27.942;2023-06-22T03:46:35;25.63;;;11.70;;
32455;SDS011;18912;43.270;27.942;2023-06-22T03:49:01;15.83;;;11.50;;
32455;SDS011;18912;43.270;27.942;2023-06-22T03:51:28;20.35;;;11.63;;
32455;SDS011;18912;43.270;27.942;2023-06-22T03:53:53;26.23;;;13.50;;
32455;SDS011;18912;43.270;27.942;2023-06-22T03:56:19;26.73;;;11.87;;
32455;SDS011;18912;43.270;27.942;2023-06-22T04:01:11;19.90;;;11.68;;
32455;SDS011;18912;43.270;27.942;2023-06-22T04:03:37;17.40;;;12.03;;
32455;SDS011;18912;43.270;27.942;2023-06-22T04:06:03;19.42;;;11.55;;
32455;SDS011;18912;43.270;27.942;2023-06-22T04:08:29;18.87;;;12.90;;
32455;SDS011;18912;43.270;27.942;2023-06-22T04:10:55;20.50;;;12.82;;
32455;SDS011;18912;43.270;27.942;2023-06-22T04:13:20;18.43;;;12.77;;
32455;SDS011;18912;43.270;27.942;2023-06-22T04:15:46;29.17;;;12.53;;
32455;SDS011;18912;43.270;27.942;2023-06-22T04:18:11;15.63;;;10.87;;
32455;SDS011;18912;43.270;27.942;2023-06-22T04:20:37;25.70;;;11.30;;
32455;SDS011;18912;43.270;27.942;2023-06-22T04:23:02;17.27;;;12.27;;
32455;SDS011;18912;43.270;27.942;2023-06-22T04:25:28;15.57;;;11.17;;
32455;SDS011;18912;43.270;27.942;2023-06-22T04:27:53;18.90;;;10.47;;
32455;SDS011;18912;43.270;27.942;2023-06-22T04:30:19;15.37;;;10.60;;
32455;SDS011;18912;43.270;27.942;2023-06-22T04:32:44;21.57;;;10.23;;
32455;SDS011;18912;43.270;27.942;2023-06-22T04:35:10;21.07;;;11.23;;
32455;SDS011;18912;43.270;27.942;2023-06-22T04:37:36;19.70;;;10.77;;
32455;SDS011;18912;43.270;27.942;2023-06-22T04:40:02;20.08;;;10.52;;
32455;SDS011;18912;43.270;27.942;2023-06-22T04:42:30;16.52;;;10.45;;
32455;SDS011;18912;43.270;27.942;2023-06-22T04:47:22;15.07;;;8.52;;
32455;SDS011;18912;43.270;27.942;2023-06-22T04:49:47;23.60;;;9.67;;
32455;SDS011;18912;43.270;27.942;2023-06-22T04:52:13;21.23;;;9.73;;
32455;SDS011;18912;43.270;27.942;2023-06-22T04:54:45;20.80;;;9.25;;
32455;SDS011;18912;43.270;27.942;2023-06-22T04:57:20;17.48;;;9.20;;
32455;SDS011;18912;43.270;27.942;2023-06-22T04:59:45;10.20;;;7.10;;
32455;SDS011;18912;43.270;27.942;2023-06-22T05:02:11;24.57;;;7.87;;
32455;SDS011;18912;43.270;27.942;2023-06-22T05:04:36;10.97;;;7.60;;
32455;SDS011;18912;43.270;27.942;2023-06-22T05:09:29;19.35;;;7.15;;
32455;SDS011;18912;43.270;27.942;2023-06-22T05:11:55;15.90;;;7.32;;
32455;SDS011;18912;43.270;27.942;2023-06-22T05:14:27;14.55;;;7.05;;
32455;SDS011;18912;43.270;27.942;2023-06-22T05:16:52;11.10;;;7.50;;
32455;SDS011;18912;43.270;27.942;2023-06-22T05:19:18;17.00;;;6.53;;
32455;SDS011;18912;43.270;27.942;2023-06-22T05:21:43;14.43;;;5.97;;
32455;SDS011;18912;43.270;27.942;2023-06-22T05:24:09;21.23;;;6.03;;
32455;SDS011;18912;43.270;27.942;2023-06-22T05:26:34;15.07;;;7.33;;
32455;SDS011;18912;43.270;27.942;2023-06-22T05:29:00;14.37;;;6.57;;
32455;SDS011;18912;43.270;27.942;2023-06-22T05:31:27;10.73;;;5.90;;
32455;SDS011;18912;43.270;27.942;2023-06-22T05:33:53;9.03;;;5.93;;
32455;SDS011;18912;43.270;27.942;2023-06-22T05:36:20;11.00;;;5.35;;
32455;SDS011;18912;43.270;27.942;2023-06-22T05:38:46;8.85;;;5.55;;
32455;SDS011;18912;43.270;27.942;2023-06-22T05:41:12;9.00;;;5.28;;
32455;SDS011;18912;43.270;27.942;2023-06-22T05:43:38;13.90;;;5.82;;
32455;SDS011;18912;43.270;27.942;2023-06-22T05:46:04;8.95;;;5.03;;
32455;SDS011;18912;43.270;27.942;2023-06-22T05:48:30;9.70;;;5.80;;
32455;SDS011;18912;43.270;27.942;2023-06-22T05:50:55;12.63;;;6.77;;
32455;SDS011;18912;43.270;27.942;2023-06-22T05:53:21;9.83;;;5.37;;
32455;SDS011;18912;43.270;27.942;2023-06-22T05:55:47;12.07;;;5.77;;
32455;SDS011;18912;43.270;27.942;2023-06-22T05:58:12;5.57;;;5.00;;
32455;SDS011;18912;43.270;27.942;2023-06-22T06:00:41;13.25;;;5.55;;
32455;SDS011;18912;43.270;27.942;2023-06-22T06:03:08;6.05;;;5.00;;
32455;SDS011;18912;43.270;27.942;2023-06-22T06:05:34;10.30;;;5.35;;
32455;SDS011;18912;43.270;27.942;2023-06-22T06:08:00;8.15;;;5.40;;
32455;SDS011;18912;43.270;27.942;2023-06-22T06:10:26;8.20;;;4.85;;
32455;SDS011;18912;43.270;27.942;2023-06-22T06:12:54;13.10;;;5.30;;
32455;SDS011;18912;43.270;27.942;2023-06-22T06:15:20;13.43;;;5.50;;
32455;SDS011;18912;43.270;27.942;2023-06-22T06:17:49;14.10;;;5.00;;
32455;SDS011;18912;43.270;27.942;2023-06-22T06:20:18;7.40;;;5.20;;
32455;SDS011;18912;43.270;27.942;2023-06-22T06:22:45;14.52;;;5.13;;
32455;SDS011;18912;43.270;27.942;2023-06-22T06:25:11;7.85;;;4.50;;
32455;SDS011;18912;43.270;27.942;2023-06-22T06:27:44;6.65;;;5.07;;
32455;SDS011;18912;43.270;27.942;2023-06-22T06:30:14;9.88;;;4.88;;
32455;SDS011;18912;43.270;27.942;2023-06-22T06:32:41;6.53;;;4.90;;
32455;SDS011;18912;43.270;27.942;2023-06-22T06:35:07;7.80;;;4.60;;
32455;SDS011;18912;43.270;27.942;2023-06-22T06:37:38;8.88;;;5.40;;
32455;SDS011;18912;43.270;27.942;2023-06-22T06:40:06;9.63;;;4.57;;
32455;SDS011;18912;43.270;27.942;2023-06-22T06:42:46;6.95;;;4.53;;
32455;SDS011;18912;43.270;27.942;2023-06-22T06:45:22;8.63;;;4.80;;
32455;SDS011;18912;43.270;27.942;2023-06-22T06:47:49;7.35;;;4.15;;
32455;SDS011;18912;43.270;27.942;2023-06-22T06:50:16;6.10;;;4.43;;
32455;SDS011;18912;43.270;27.942;2023-06-22T06:52:42;10.75;;;4.75;;
32455;SDS011;18912;43.270;27.942;2023-06-22T06:55:08;7.20;;;4.73;;
32455;SDS011;18912;43.270;27.942;2023-06-22T06:57:39;9.15;;;4.18;;
32455;SDS011;18912;43.270;27.942;2023-06-22T07:00:05;7.43;;;5.05;;
32455;SDS011;18912;43.270;27.942;2023-06-22T07:02:40;11.25;;;5.38;;
32455;SDS011;18912;43.270;27.942;2023-06-22T07:05:07;8.30;;;4.35;;
32455;SDS011;18912;43.270;27.942;2023-06-22T07:26:18;11.63;;;5.35;;
32455;SDS011;18912;43.270;27.942;2023-06-22T07:28:43;9.67;;;4.10;;
32455;SDS011;18912;43.270;27.942;2023-06-22T07:31:09;10.80;;;5.00;;
32455;SDS011;18912;43.270;27.942;2023-06-22T07:33:34;8.93;;;4.93;;
32455;SDS011;18912;43.270;27.942;2023-06-22T07:36:00;9.70;;;4.80;;
32455;SDS011;18912;43.270;27.942;2023-06-22T07:38:25;6.63;;;5.30;;
32455;SDS011;18912;43.270;27.942;2023-06-22T07:40:51;7.90;;;5.13;;
32455;SDS011;18912;43.270;27.942;2023-06-22T07:43:18;14.07;;;4.22;;
32455;SDS011;18912;43.270;27.942;2023-06-22T07:45:50;9.25;;;4.70;;
32455;SDS011;18912;43.270;27.942;2023-06-22T07:48:22;9.45;;;4.40;;
32455;SDS011;18912;43.270;27.942;2023-06-22T07:50:48;6.68;;;4.60;;
32455;SDS011;18912;43.270;27.942;2023-06-22T07:53:14;5.38;;;4.05;;
32455;SDS011;18912;43.270;27.942;2023-06-22T07:55:39;6.55;;;4.05;;
32455;SDS011;18912;43.270;27.942;2023-06-22T07:58:05;6.37;;;4.63;;
32455;SDS011;18912;43.270;27.942;2023-06-22T08:00:30;6.73;;;3.90;;
32455;SDS011;18912;43.270;27.942;2023-06-22T08:02:57;6.72;;;4.18;;
32455;SDS011;18912;43.270;27.942;2023-06-22T08:05:23;5.83;;;4.00;;
32455;SDS011;18912;43.270;27.942;2023-06-22T08:07:49;8.53;;;4.47;;
32455;SDS011;18912;43.270;27.942;2023-06-22T08:12:40;4.30;;;3.90;;
32455;SDS011;18912;43.270;27.942;2023-06-22T08:15:06;6.00;;;3.93;;
32455;SDS011;18912;43.270;27.942;2023-06-22T08:17:32;4.22;;;3.70;;
32455;SDS011;18912;43.270;27.942;2023-06-22T08:19:58;4.45;;;4.03;;
32455;SDS011;18912;43.270;27.942;2023-06-22T08:22:23;13.40;;;4.20;;
32455;SDS011;18912;43.270;27.942;2023-06-22T08:24:49;9.10;;;4.27;;
32455;SDS011;18912;43.270;27.942;2023-06-22T08:27:14;6.70;;;4.10;;
32455;SDS011;18912;43.270;27.942;2023-06-22T08:29:41;7.80;;;4.05;;
32455;SDS011;18912;43.270;27.942;2023-06-22T08:32:10;7.70;;;4.30;;
32455;SDS011;18912;43.270;27.942;2023-06-22T08:34:36;9.13;;;3.83;;
32455;SDS011;18912;43.270;27.942;2023-06-22T08:37:02;7.43;;;3.70;;
32455;SDS011;18912;43.270;27.942;2023-06-22T08:39:31;6.07;;;4.07;;
32455;SDS011;18912;43.270;27.942;2023-06-22T08:41:57;6.05;;;4.10;;
32455;SDS011;18912;43.270;27.942;2023-06-22T08:44:22;6.20;;;4.03;;
32455;SDS011;18912;43.270;27.942;2023-06-22T08:46:48;8.50;;;4.30;;
32455;SDS011;18912;43.270;27.942;2023-06-22T08:49:13;4.13;;;3.73;;
32455;SDS011;18912;43.270;27.942;2023-06-22T08:51:39;6.63;;;4.40;;
32455;SDS011;18912;43.270;27.942;2023-06-22T08:54:04;6.57;;;4.03;;
32455;SDS011;18912;43.270;27.942;2023-06-22T08:56:30;8.67;;;4.40;;
32455;SDS011;18912;43.270;27.942;2023-06-22T08:58:55;5.57;;;4.63;;
32455;SDS011;18912;43.270;27.942;2023-06-22T09:01:21;6.53;;;3.93;;
32455;SDS011;18912;43.270;27.942;2023-06-22T09:03:47;5.82;;;4.07;;
32455;SDS011;18912;43.270;27.942;2023-06-22T09:06:22;6.50;;;4.57;;
32455;SDS011;18912;43.270;27.942;2023-06-22T09:08:47;7.05;;;5.15;;
32455;SDS011;18912;43.270;27.942;2023-06-22T09:11:14;11.85;;;4.90;;
32455;SDS011;18912;43.270;27.942;2023-06-22T09:13:39;7.93;;;4.27;;
32455;SDS011;18912;43.270;27.942;2023-06-22T09:16:05;9.20;;;4.97;;
32455;SDS011;18912;43.270;27.942;2023-06-22T09:18:30;8.60;;;4.73;;
32455;SDS011;18912;43.270;27.942;2023-06-22T09:20:56;8.97;;;4.43;;
32455;SDS011;18912;43.270;27.942;2023-06-22T09:26:24;6.07;;;4.40;;
32455;SDS011;18912;43.270;27.942;2023-06-22T09:29:26;10.25;;;5.20;;
32455;SDS011;18912;43.270;27.942;2023-06-22T09:31:52;7.23;;;5.17;;
32455;SDS011;18912;43.270;27.942;2023-06-22T09:34:20;12.82;;;5.45;;
32455;SDS011;18912;43.270;27.942;2023-06-22T09:36:46;6.70;;;5.27;;
32455;SDS011;18912;43.270;27.942;2023-06-22T09:39:12;8.98;;;5.43;;
32455;SDS011;18912;43.270;27.942;2023-06-22T09:41:37;13.20;;;8.10;;
32455;SDS011;18912;43.270;27.942;2023-06-22T09:44:03;9.47;;;8.23;;
32455;SDS011;18912;43.270;27.942;2023-06-22T09:46:28;17.53;;;8.27;;
32455;SDS011;18912;43.270;27.942;2023-06-22T09:48:54;11.07;;;8.13;;
32455;SDS011;18912;43.270;27.942;2023-06-22T09:51:20;18.10;;;7.90;;
32455;SDS011;18912;43.270;27.942;2023-06-22T09:53:46;16.77;;;8.45;;
32455;SDS011;18912;43.270;27.942;2023-06-22T09:56:12;18.13;;;8.80;;
32455;SDS011;18912;43.270;27.942;2023-06-22T09:58:43;13.45;;;8.52;;
32455;SDS011;18912;43.270;27.942;2023-06-22T10:01:09;11.45;;;7.43;;
32455;SDS011;18912;43.270;27.942;2023-06-22T10:03:35;12.50;;;6.43;;
32455;SDS011;18912;43.270;27.942;2023-06-22T10:06:02;14.75;;;7.78;;
32455;SDS011;18912;43.270;27.942;2023-06-22T10:08:27;12.23;;;7.55;;
32455;SDS011;18912;43.270;27.942;2023-06-22T10:10:53;17.80;;;7.20;;
32455;SDS011;18912;43.270;27.942;2023-06-22T10:13:18;16.27;;;7.27;;
32455;SDS011;18912;43.270;27.942;2023-06-22T10:15:44;9.02;;;7.15;;
32455;SDS011;18912;43.270;27.942;2023-06-22T10:18:15;10.45;;;7.20;;
32455;SDS011;18912;43.270;27.942;2023-06-22T10:20:41;14.55;;;6.57;;
32455;SDS011;18912;43.270;27.942;2023-06-22T10:23:06;9.20;;;6.97;;
32455;SDS011;18912;43.270;27.942;2023-06-22T10:25:32;12.17;;;6.40;;
32455;SDS011;18912;43.270;27.942;2023-06-22T10:27:57;16.57;;;8.40;;
32455;SDS011;18912;43.270;27.942;2023-06-22T10:30:23;8.93;;;6.73;;
32455;SDS011;18912;43.270;27.942;2023-06-22T10:32:48;10.37;;;6.40;;
32455;SDS011;18912;43.270;27.942;2023-06-22T10:35:14;11.73;;;6.63;;
32455;SDS011;18912;43.270;27.942;2023-06-22T10:37:41;9.43;;;6.15;;
32455;SDS011;18912;43.270;27.942;2023-06-22T10:40:08;12.32;;;6.57;;
32455;SDS011;18912;43.270;27.942;2023-06-22T10:42:34;17.77;;;6.53;;
32455;SDS011;18912;43.270;27.942;2023-06-22T10:45:00;7.40;;;6.23;;
32455;SDS011;18912;43.270;27.942;2023-06-22T10:47:25;8.20;;;6.47;;
32455;SDS011;18912;43.270;27.942;2023-06-22T10:49:51;9.33;;;6.90;;
32455;SDS011;18912;43.270;27.942;2023-06-22T10:52:16;17.43;;;6.73;;
32455;SDS011;18912;43.270;27.942;2023-06-22T10:54:42;9.43;;;6.13;;
32455;SDS011;18912;43.270;27.942;2023-06-22T10:57:07;10.93;;;6.83;;
32455;SDS011;18912;43.270;27.942;2023-06-22T10:59:33;10.27;;;6.23;;
32455;SDS011;18912;43.270;27.942;2023-06-22T11:01:58;14.53;;;6.70;;
32455;SDS011;18912;43.270;27.942;2023-06-22T11:04:24;10.57;;;7.27;;
32455;SDS011;18912;43.270;27.942;2023-06-22T11:06:50;12.18;;;6.95;;
32455;SDS011;18912;43.270;27.942;2023-06-22T11:09:16;11.13;;;7.10;;
32455;SDS011;18912;43.270;27.942;2023-06-22T11:11:45;10.25;;;7.07;;
32455;SDS011;18912;43.270;27.942;2023-06-22T11:14:11;14.75;;;6.75;;
32455;SDS011;18912;43.270;27.942;2023-06-22T11:16:37;9.73;;;6.97;;
32455;SDS011;18912;43.270;27.942;2023-06-22T11:19:04;22.80;;;6.80;;
32455;SDS011;18912;43.270;27.942;2023-06-22T11:21:30;12.55;;;6.65;;
32455;SDS011;18912;43.270;27.942;2023-06-22T11:23:56;12.15;;;6.43;;
32455;SDS011;18912;43.270;27.942;2023-06-22T11:26:22;12.52;;;6.80;;
32455;SDS011;18912;43.270;27.942;2023-06-22T11:28:48;12.67;;;6.77;;
32455;SDS011;18912;43.270;27.942;2023-06-22T11:31:13;10.30;;;6.70;;
32455;SDS011;18912;43.270;27.942;2023-06-22T11:33:39;14.40;;;6.40;;
32455;SDS011;18912;43.270;27.942;2023-06-22T11:36:05;7.37;;;6.37;;
32455;SDS011;18912;43.270;27.942;2023-06-22T11:38:30;12.43;;;6.37;;
32455;SDS011;18912;43.270;27.942;2023-06-22T11:40:57;9.80;;;6.07;;
32455;SDS011;18912;43.270;27.942;2023-06-22T11:43:23;10.20;;;6.85;;
32455;SDS011;18912;43.270;27.942;2023-06-22T11:45:48;10.50;;;5.83;;
32455;SDS011;18912;43.270;27.942;2023-06-22T11:50:40;8.90;;;6.03;;
32455;SDS011;18912;43.270;27.942;2023-06-22T11:53:06;6.90;;;5.90;;
32455;SDS011;18912;43.270;27.942;2023-06-22T11:55:31;11.23;;;6.67;;
32455;SDS011;18912;43.270;27.942;2023-06-22T11:57:57;9.17;;;6.77;;
32455;SDS011;18912;43.270;27.942;2023-06-22T12:00:28;9.73;;;6.30;;
32455;SDS011;18912;43.270;27.942;2023-06-22T12:02:54;15.18;;;6.65;;
32455;SDS011;18912;43.270;27.942;2023-06-22T12:05:21;13.63;;;6.35;;
32455;SDS011;18912;43.270;27.942;2023-06-22T12:07:47;13.38;;;6.93;;
32455;SDS011;18912;43.270;27.942;2023-06-22T12:12:39;11.45;;;6.47;;
32455;SDS011;18912;43.270;27.942;2023-06-22T12:15:05;10.65;;;5.80;;
32455;SDS011;18912;43.270;27.942;2023-06-22T12:17:31;7.25;;;5.93;;
32455;SDS011;18912;43.270;27.942;2023-06-22T12:19:58;9.63;;;6.30;;
32455;SDS011;18912;43.270;27.942;2023-06-22T12:24:48;13.38;;;6.30;;
32455;SDS011;18912;43.270;27.942;2023-06-22T12:27:14;19.23;;;6.50;;
32455;SDS011;18912;43.270;27.942;2023-06-22T12:29:43;9.40;;;6.15;;
32455;SDS011;18912;43.270;27.942;2023-06-22T12:32:08;16.87;;;6.23;;
32455;SDS011;18912;43.270;27.942;2023-06-22T12:34:34;10.00;;;6.00;;
32455;SDS011;18912;43.270;27.942;2023-06-22T12:36:59;8.30;;;6.17;;
32455;SDS011;18912;43.270;27.942;2023-06-22T12:39:25;11.00;;;5.80;;
32455;SDS011;18912;43.270;27.942;2023-06-22T12:41:50;12.50;;;6.27;;
32455;SDS011;18912;43.270;27.942;2023-06-22T12:44:16;19.57;;;6.37;;
32455;SDS011;18912;43.270;27.942;2023-06-22T12:46:42;5.95;;;4.68;;
32455;SDS011;18912;43.270;27.942;2023-06-22T12:49:07;9.00;;;4.97;;
32455;SDS011;18912;43.270;27.942;2023-06-22T12:51:33;9.23;;;5.73;;
32455;SDS011;18912;43.270;27.942;2023-06-22T12:54:04;12.15;;;5.90;;
32455;SDS011;18912;43.270;27.942;2023-06-22T12:56:29;11.13;;;4.90;;
32455;SDS011;18912;43.270;27.942;2023-06-22T12:58:55;7.83;;;5.13;;
32455;SDS011;18912;43.270;27.942;2023-06-22T13:01:20;6.43;;;5.23;;
32455;SDS011;18912;43.270;27.942;2023-06-22T13:03:47;7.20;;;5.57;;
32455;SDS011;18912;43.270;27.942;2023-06-22T13:06:12;8.37;;;3.70;;
32455;SDS011;18912;43.270;27.942;2023-06-22T13:08:38;11.07;;;5.17;;
32455;SDS011;18912;43.270;27.942;2023-06-22T13:11:03;9.97;;;5.37;;
32455;SDS011;18912;43.270;27.942;2023-06-22T13:13:29;8.43;;;5.37;;
32455;SDS011;18912;43.270;27.942;2023-06-22T13:15:54;10.20;;;4.97;;
32455;SDS011;18912;43.270;27.942;2023-06-22T13:18:20;13.33;;;6.77;;
32455;SDS011;18912;43.270;27.942;2023-06-22T13:20:45;14.97;;;5.40;;
32455;SDS011;18912;43.270;27.942;2023-06-22T13:23:11;9.73;;;5.13;;
32455;SDS011;18912;43.270;27.942;2023-06-22T13:25:37;8.33;;;4.33;;
32455;SDS011;18912;43.270;27.942;2023-06-22T13:28:02;10.43;;;5.20;;
32455;SDS011;18912;43.270;27.942;2023-06-22T13:30:28;9.52;;;4.88;;
32455;SDS011;18912;43.270;27.942;2023-06-22T13:32:54;9.48;;;4.97;;
32455;SDS011;18912;43.270;27.942;2023-06-22T13:35:20;7.20;;;5.40;;
32455;SDS011;18912;43.270;27.942;2023-06-22T13:37:46;10.63;;;6.00;;
32455;SDS011;18912;43.270;27.942;2023-06-22T13:40:11;5.27;;;4.60;;
32455;SDS011;18912;43.270;27.942;2023-06-22T13:42:37;8.80;;;4.77;;
32455;SDS011;18912;43.270;27.942;2023-06-22T13:45:03;8.23;;;5.37;;
32455;SDS011;18912;43.270;27.942;2023-06-22T13:47:29;10.05;;;5.55;;
32455;SDS011;18912;43.270;27.942;2023-06-22T13:49:55;6.25;;;4.45;;
32455;SDS011;18912;43.270;27.942;2023-06-22T13:52:21;13.17;;;5.20;;
32455;SDS011;18912;43.270;27.942;2023-06-22T13:54:46;10.50;;;5.00;;
32455;SDS011;18912;43.270;27.942;2023-06-22T13:57:12;5.70;;;5.03;;
32455;SDS011;18912;43.270;27.942;2023-06-22T13:59:37;7.07;;;5.00;;
32455;SDS011;18912;43.270;27.942;2023-06-22T14:02:03;7.17;;;4.83;;
32455;SDS011;18912;43.270;27.942;2023-06-22T14:04:28;18.63;;;4.93;;
32455;SDS011;18912;43.270;27.942;2023-06-22T14:06:54;9.50;;;5.17;;
32455;SDS011;18912;43.270;27.942;2023-06-22T14:09:20;9.65;;;5.90;;
32455;SDS011;18912;43.270;27.942;2023-06-22T14:11:46;7.97;;;6.33;;
32455;SDS011;18912;43.270;27.942;2023-06-22T14:14:11;6.80;;;4.93;;
32455;SDS011;18912;43.270;27.942;2023-06-22T14:16:37;8.53;;;5.40;;
32455;SDS011;18912;43.270;27.942;2023-06-22T14:19:02;9.70;;;5.23;;
32455;SDS011;18912;43.270;27.942;2023-06-22T14:21:28;11.60;;;5.10;;
32455;SDS011;18912;43.270;27.942;2023-06-22T14:23:54;13.65;;;5.88;;
32455;SDS011;18912;43.270;27.942;2023-06-22T14:26:20;12.60;;;6.07;;
32455;SDS011;18912;43.270;27.942;2023-06-22T14:28:47;17.63;;;5.70;;
32455;SDS011;18912;43.270;27.942;2023-06-22T14:31:15;14.15;;;5.25;;
32455;SDS011;18912;43.270;27.942;2023-06-22T14:33:45;12.30;;;5.50;;
32455;SDS011;18912;43.270;27.942;2023-06-22T14:36:12;10.43;;;5.70;;
32455;SDS011;18912;43.270;27.942;2023-06-22T14:38:37;11.00;;;5.97;;
32455;SDS011;18912;43.270;27.942;2023-06-22T14:41:03;9.07;;;6.27;;
32455;SDS011;18912;43.270;27.942;2023-06-22T14:43:28;9.83;;;6.20;;
32455;SDS011;18912;43.270;27.942;2023-06-22T14:45:54;11.77;;;6.30;;
32455;SDS011;18912;43.270;27.942;2023-06-22T14:48:19;13.20;;;6.43;;
32455;SDS011;18912;43.270;27.942;2023-06-22T14:50:45;10.90;;;6.43;;
32455;SDS011;18912;43.270;27.942;2023-06-22T14:53:10;8.27;;;5.93;;
32455;SDS011;18912;43.270;27.942;2023-06-22T14:55:36;9.10;;;6.83;;
32455;SDS011;18912;43.270;27.942;2023-06-22T14:58:01;16.97;;;6.77;;
32455;SDS011;18912;43.270;27.942;2023-06-22T15:00:27;7.13;;;5.57;;
32455;SDS011;18912;43.270;27.942;2023-06-22T15:02:52;13.90;;;6.93;;
32455;SDS011;18912;43.270;27.942;2023-06-22T15:05:18;14.13;;;6.90;;
32455;SDS011;18912;43.270;27.942;2023-06-22T15:07:43;12.97;;;6.50;;